Time;durP1;ratioP1;P1;durP2;ratioP2;P2;SDS_P1;SDS_P2;PMS_P1;PMS_P2;Temp;Humidity;BMP_temperature;BMP_pressure;BME280_temperature;BME280_humidity;BME280_pressure;Samples;Min_cycle;Max_cycle;Signal;HPM_P1;HPM_P2
2021/07/02 00:00:00;;;;;;;9.00;4.93;;;;;;;11.34;87.42;96731.72;3562817;39;20940;-75
2021/07/02 00:02:28;;;;;;;8.30;5.17;;;;;;;11.35;87.42;96734.22;3560961;40;20568;-73
2021/07/02 00:04:56;;;;;;;11.20;4.87;;;;;;;11.28;87.26;96733.78;3561097;40;20833;-76
2021/07/02 00:07:23;;;;;;;7.53;4.27;;;;;;;11.31;87.27;96730.16;3559490;40;20917;-74
2021/07/02 00:09:51;;;;;;;9.33;4.40;;;;;;;11.25;87.13;96722.69;3559374;39;20481;-74
2021/07/02 00:12:21;;;;;;;13.60;5.20;;;;;;;11.33;86.83;96725.63;3563497;40;20450;-73
2021/07/02 00:14:49;;;;;;;12.70;4.63;;;;;;;11.38;87.33;96722.69;3562828;40;20586;-72
2021/07/02 00:17:16;;;;;;;10.20;4.73;;;;;;;11.34;87.38;96716.81;3562657;40;20467;-73
2021/07/02 00:19:44;;;;;;;7.00;4.30;;;;;;;11.39;87.15;96719.97;3561300;39;20784;-73
2021/07/02 00:22:12;;;;;;;8.60;4.07;;;;;;;11.32;87.50;96718.69;3560609;40;20512;-74
2021/07/02 00:24:40;;;;;;;11.90;4.90;;;;;;;11.21;88.07;96719.47;3565074;39;20477;-74
2021/07/02 00:27:08;;;;;;;13.10;5.43;;;;;;;11.23;87.75;96714.09;3561948;40;20839;-73
2021/07/02 00:29:38;;;;;;;7.10;4.90;;;;;;;11.23;88.01;96714.09;3564862;39;20490;-74
2021/07/02 00:32:06;;;;;;;11.60;5.13;;;;;;;11.23;87.82;96717.56;3560483;40;20561;-73
2021/07/02 00:34:34;;;;;;;8.60;4.27;;;;;;;11.22;87.99;96707.19;3565105;39;20522;-74
2021/07/02 00:37:02;;;;;;;8.80;5.00;;;;;;;11.25;87.75;96720.91;3564565;40;20835;-73
2021/07/02 00:39:31;;;;;;;7.90;4.87;;;;;;;11.23;87.86;96709.72;3563538;40;20528;-72
2021/07/02 00:41:59;;;;;;;8.70;4.67;;;;;;;11.18;87.73;96706.56;3564567;40;20443;-73
2021/07/02 00:44:45;;;;;;;16.40;4.70;;;;;;;11.19;87.93;96703.00;3559836;39;20475;-72
2021/07/02 00:47:14;;;;;;;8.50;4.37;;;;;;;11.21;87.89;96708.97;3560658;40;20545;-73
2021/07/02 00:49:42;;;;;;;7.30;4.10;;;;;;;11.20;88.02;96704.66;3563750;39;20460;-72
2021/07/02 00:52:13;;;;;;;10.77;4.57;;;;;;;11.25;87.97;96699.09;3561653;40;20536;-73
2021/07/02 00:57:39;;;;;;;9.73;4.93;;;;;;;11.11;87.54;96689.56;3564061;40;20498;-72
2021/07/02 01:00:10;;;;;;;7.67;4.43;;;;;;;11.13;87.82;96702.56;3564132;39;20777;-74
2021/07/02 01:02:39;;;;;;;10.10;4.90;;;;;;;11.08;88.04;96695.03;3562453;40;20439;-73
2021/07/02 01:05:09;;;;;;;7.67;4.87;;;;;;;11.03;88.01;96694.50;3560922;40;21144;-74
2021/07/02 01:07:37;;;;;;;13.63;5.20;;;;;;;10.95;88.06;96702.88;3571698;40;20778;-72
2021/07/02 01:10:05;;;;;;;15.07;4.63;;;;;;;11.03;87.86;96702.38;3559848;39;20475;-72
2021/07/02 01:12:34;;;;;;;12.13;4.57;;;;;;;10.97;88.00;96701.00;3558754;40;20772;-72
2021/07/02 01:15:03;;;;;;;12.20;4.60;;;;;;;10.86;88.50;96695.69;3561364;40;20449;-72
2021/07/02 01:17:33;;;;;;;10.93;5.47;;;;;;;10.82;88.35;96694.19;3563900;40;20795;-72
2021/07/02 01:20:01;;;;;;;10.50;4.07;;;;;;;10.84;88.43;96697.56;3562687;40;20694;-73
2021/07/02 01:22:30;;;;;;;11.07;4.43;;;;;;;10.93;87.75;96704.78;3561552;40;20446;-71
2021/07/02 01:24:58;;;;;;;8.57;5.07;;;;;;;10.89;87.68;96704.16;3560255;40;20706;-73
2021/07/02 01:27:26;;;;;;;8.60;5.00;;;;;;;10.79;87.80;96702.28;3564814;40;20741;-72
2021/07/02 01:29:54;;;;;;;11.07;5.10;;;;;;;10.70;88.09;96701.09;3562081;40;20453;-72
2021/07/02 01:32:22;;;;;;;10.13;5.70;;;;;;;10.64;88.25;96705.00;3565207;40;20438;-71
2021/07/02 01:34:50;;;;;;;8.30;5.20;;;;;;;10.57;88.80;96708.13;3564821;39;20873;-72
2021/07/02 01:37:18;;;;;;;13.90;6.40;;;;;;;10.58;88.70;96697.53;3562975;40;20433;-71
2021/07/02 01:39:47;;;;;;;10.07;5.97;;;;;;;10.59;88.62;96699.22;3564590;40;20532;-72
2021/07/02 01:42:16;;;;;;;8.97;4.40;;;;;;;10.56;88.41;96702.03;3564363;40;20446;-72
2021/07/02 01:44:44;;;;;;;9.37;5.33;;;;;;;10.47;88.64;96708.72;3560681;39;20788;-71
2021/07/02 01:47:11;;;;;;;21.87;5.30;;;;;;;10.40;89.13;96704.84;3563519;40;20920;-72
2021/07/02 01:49:39;;;;;;;9.27;5.50;;;;;;;10.48;88.92;96707.78;3560658;39;20726;-71
2021/07/02 01:52:07;;;;;;;7.20;5.07;;;;;;;10.32;89.47;96707.13;3567232;40;20460;-72
2021/07/02 01:54:35;;;;;;;8.00;4.67;;;;;;;10.38;89.43;96705.88;3563137;39;20572;-72
2021/07/02 01:57:10;;;;;;;8.70;5.23;;;;;;;10.34;89.41;96699.19;3562766;40;20535;-73
2021/07/02 01:59:38;;;;;;;11.47;5.33;;;;;;;10.20;89.75;96705.28;3560205;40;20492;-73
2021/07/02 02:02:06;;;;;;;21.70;5.97;;;;;;;10.19;89.82;96707.09;3560838;40;20435;-73
2021/07/02 02:04:34;;;;;;;8.40;4.83;;;;;;;10.20;89.71;96705.28;3562000;39;20933;-72
2021/07/02 02:07:02;;;;;;;11.40;5.63;;;;;;;10.19;89.54;96703.59;3561659;40;20784;-73
2021/07/02 02:09:30;;;;;;;7.60;4.33;;;;;;;10.12;89.55;96687.47;3565839;39;20497;-71
2021/07/02 02:11:58;;;;;;;10.63;5.33;;;;;;;10.15;89.82;96704.75;3562679;40;20692;-71
2021/07/02 02:14:27;;;;;;;11.13;4.90;;;;;;;10.11;89.65;96691.00;3560398;40;20470;-72
2021/07/02 02:16:55;;;;;;;8.27;5.00;;;;;;;10.14;89.90;96697.84;3562032;40;20499;-73
2021/07/02 02:19:23;;;;;;;10.10;5.30;;;;;;;10.13;89.96;96701.38;3561131;39;20463;-73
2021/07/02 02:21:51;;;;;;;11.63;5.33;;;;;;;10.11;90.12;96701.47;3565056;40;20680;-73
2021/07/02 02:24:23;;;;;;;16.37;5.07;;;;;;;10.12;89.95;96686.66;3560927;39;20492;-72
2021/07/02 02:26:51;;;;;;;10.47;5.30;;;;;;;10.13;89.81;96681.28;3562172;40;20559;-73
2021/07/02 02:29:19;;;;;;;13.33;5.73;;;;;;;10.13;89.64;96680.47;3561759;39;20464;-72
2021/07/02 02:31:48;;;;;;;9.30;5.33;;;;;;;10.04;89.66;96690.59;3562416;40;20438;-74
2021/07/02 02:34:16;;;;;;;10.20;6.03;;;;;;;10.03;89.95;96688.06;3566074;39;20982;-73
2021/07/02 02:36:44;;;;;;;11.07;5.07;;;;;;;10.00;89.63;96686.50;3565399;40;20454;-71
2021/07/02 02:39:12;;;;;;;8.47;4.50;;;;;;;9.98;89.76;96688.38;3564727;39;21008;-73
2021/07/02 02:41:40;;;;;;;10.70;4.93;;;;;;;9.95;89.95;96688.56;3563621;40;20470;-73
2021/07/02 02:44:08;;;;;;;11.67;5.47;;;;;;;9.94;89.83;96688.66;3563148;39;20454;-73
2021/07/02 02:46:36;;;;;;;8.73;5.10;;;;;;;9.95;89.72;96688.56;3562509;40;20524;-73
2021/07/02 02:49:06;;;;;;;14.60;5.43;;;;;;;9.95;89.92;96685.94;3561320;39;20462;-73
2021/07/02 02:51:34;;;;;;;8.03;4.97;;;;;;;9.98;89.96;96693.59;3562695;40;20531;-72
2021/07/02 02:54:01;;;;;;;10.63;5.30;;;;;;;9.96;89.90;96692.00;3561707;39;20458;-71
2021/07/02 02:56:29;;;;;;;15.60;5.07;;;;;;;9.95;89.65;96700.81;3561671;40;20766;-73
2021/07/02 02:58:57;;;;;;;11.13;5.20;;;;;;;9.93;90.74;96697.47;3562702;39;20793;-71
2021/07/02 03:01:25;;;;;;;10.00;5.33;;;;;;;9.93;90.03;96700.06;3564432;40;20469;-73
2021/07/02 03:03:53;;;;;;;9.40;4.77;;;;;;;9.88;90.18;96700.38;3562172;39;20454;-73
2021/07/02 03:06:22;;;;;;;17.97;5.90;;;;;;;9.90;90.06;96707.19;3564375;40;20721;-71
2021/07/02 03:08:50;;;;;;;10.60;5.60;;;;;;;9.87;89.89;96706.53;3562383;40;20447;-72
2021/07/02 03:11:21;;;;;;;9.20;5.20;;;;;;;9.84;90.19;96706.72;3563655;40;20551;-72
2021/07/02 03:13:49;;;;;;;8.03;5.13;;;;;;;9.83;89.75;96707.66;3562516;40;20470;-72
2021/07/02 03:16:17;;;;;;;14.10;5.13;;;;;;;9.80;90.36;96715.69;3561094;40;20911;-73
2021/07/02 03:18:45;;;;;;;12.10;6.33;;;;;;;9.72;90.64;96710.13;3560455;40;20620;-72
2021/07/02 03:21:13;;;;;;;8.47;5.13;;;;;;;9.76;90.14;96712.47;3562462;39;20454;-71
2021/07/02 03:23:43;;;;;;;18.43;5.70;;;;;;;9.82;90.17;96713.81;3563716;40;20591;-73
2021/07/02 03:26:11;;;;;;;12.93;5.30;;;;;;;9.77;90.39;96708.06;3560772;40;20510;-72
2021/07/02 03:28:39;;;;;;;9.73;5.77;;;;;;;9.72;91.24;96713.56;3567303;40;20483;-73
2021/07/02 03:31:07;;;;;;;8.53;5.37;;;;;;;9.78;90.85;96710.59;3562955;39;20827;-73
2021/07/02 03:33:35;;;;;;;11.10;6.87;;;;;;;9.85;90.95;96711.03;3562716;40;20462;-73
2021/07/02 03:36:03;;;;;;;10.93;5.27;;;;;;;10.00;90.69;96715.28;3563434;40;20587;-72
2021/07/02 03:38:31;;;;;;;13.20;6.20;;;;;;;10.10;90.46;96713.75;3562257;40;20438;-72
2021/07/02 03:41:01;;;;;;;11.47;6.07;;;;;;;10.18;90.72;96717.66;3558971;40;20454;-72
2021/07/02 03:43:28;;;;;;;10.87;5.30;;;;;;;10.23;90.51;96721.63;3562935;40;20839;-71
2021/07/02 03:45:56;;;;;;;11.33;6.47;;;;;;;10.29;90.45;96717.78;3560997;40;20736;-72
2021/07/02 03:48:24;;;;;;;11.07;6.57;;;;;;;10.37;90.40;96720.75;3562073;40;20830;-70
2021/07/02 03:50:52;;;;;;;9.37;5.67;;;;;;;10.28;90.67;96700.38;3561452;40;20773;-72
2021/07/02 03:53:20;;;;;;;9.80;5.90;;;;;;;10.45;90.46;96722.88;3565557;40;20474;-72
2021/07/02 03:55:48;;;;;;;14.47;6.27;;;;;;;10.55;90.35;96729.19;3562669;39;20724;-72
2021/07/02 03:58:17;;;;;;;16.63;5.70;;;;;;;10.59;90.15;96729.81;3561420;40;20457;-72
2021/07/02 04:00:45;;;;;;;11.27;5.80;;;;;;;10.57;90.54;96723.84;3560637;40;20915;-72
2021/07/02 04:03:14;;;;;;;9.80;5.80;;;;;;;10.60;90.09;96728.84;3566202;40;20462;-71
2021/07/02 04:05:44;;;;;;;10.43;5.23;;;;;;;10.72;89.62;96730.66;3560617;39;20866;-72
2021/07/02 04:08:12;;;;;;;12.87;5.50;;;;;;;10.80;89.39;96722.28;3562064;40;20879;-72
2021/07/02 04:10:40;;;;;;;10.37;5.53;;;;;;;10.82;89.16;96718.63;3562232;40;20684;-74
2021/07/02 04:13:08;;;;;;;11.50;6.10;;;;;;;10.91;89.07;96724.19;3561257;40;20497;-73
2021/07/02 04:15:38;;;;;;;11.43;6.30;;;;;;;10.96;88.73;96722.94;3559601;39;20639;-74
2021/07/02 04:18:07;;;;;;;11.60;5.70;;;;;;;11.05;89.13;96722.31;3561904;40;20468;-71
2021/07/02 04:20:37;;;;;;;13.53;5.30;;;;;;;11.15;88.18;96726.88;3562444;39;20999;-74
2021/07/02 04:23:05;;;;;;;8.97;5.30;;;;;;;11.08;87.81;96723.88;3562094;40;20442;-73
2021/07/02 04:25:33;;;;;;;12.83;5.17;;;;;;;10.86;88.30;96725.34;3567907;40;21234;-75
2021/07/02 04:28:01;;;;;;;9.97;5.40;;;;;;;10.87;88.88;96721.75;3562205;40;20438;-73
2021/07/02 04:30:29;;;;;;;10.00;5.70;;;;;;;11.00;88.49;96726.19;3566089;39;20478;-74
2021/07/02 04:32:59;;;;;;;14.20;4.87;;;;;;;11.01;88.67;96730.47;3564449;40;20476;-73
2021/07/02 04:35:27;;;;;;;9.37;5.50;;;;;;;11.05;88.46;96726.69;3568077;40;20470;-75
2021/07/02 04:37:55;;;;;;;11.40;5.13;;;;;;;11.14;88.15;96731.31;3562666;40;20492;-74
2021/07/02 04:40:22;;;;;;;12.83;6.10;;;;;;;11.04;87.61;96741.56;3559826;39;20928;-72
2021/07/02 04:42:50;;;;;;;11.00;6.40;;;;;;;11.00;87.48;96736.66;3561974;40;20863;-72
2021/07/02 04:45:18;;;;;;;11.30;6.10;;;;;;;10.86;87.95;96729.75;3562891;39;20933;-74
2021/07/02 04:47:46;;;;;;;10.93;5.43;;;;;;;11.08;87.37;96731.72;3568877;40;21125;-72
2021/07/02 04:50:15;;;;;;;8.50;5.10;;;;;;;11.07;87.05;96735.28;3558743;40;20564;-73
2021/07/02 04:52:43;;;;;;;9.33;5.73;;;;;;;11.11;86.99;96749.03;3563688;40;20696;-74
2021/07/02 04:55:12;;;;;;;12.50;6.03;;;;;;;11.17;87.11;96738.97;3562604;39;20496;-73
2021/07/02 04:57:40;;;;;;;9.50;6.67;;;;;;;11.20;86.77;96746.59;3563907;40;20901;-72
2021/07/02 05:00:10;;;;;;;13.70;6.90;;;;;;;11.32;86.92;96744.09;3566344;39;20466;-74
2021/07/02 05:02:38;;;;;;;13.00;7.20;;;;;;;11.43;86.08;96745.00;3563114;40;20440;-72
2021/07/02 05:05:07;;;;;;;11.23;5.60;;;;;;;11.60;85.36;96743.84;3564041;39;20493;-71
2021/07/02 05:07:36;;;;;;;9.67;5.37;;;;;;;11.50;85.17;96745.41;3562345;40;20930;-73
2021/07/02 05:10:06;;;;;;;9.73;6.50;;;;;;;11.39;85.59;96740.94;3563795;39;20453;-74
2021/07/02 05:12:34;;;;;;;14.90;7.90;;;;;;;11.56;85.25;96742.34;3564536;40;20435;-75
2021/07/02 05:15:03;;;;;;;12.30;6.00;;;;;;;11.76;85.10;96748.84;3560755;40;20470;-72
2021/07/02 05:17:31;;;;;;;12.27;6.30;;;;;;;11.98;83.76;96740.28;3562180;40;21213;-73
2021/07/02 05:19:59;;;;;;;9.27;5.40;;;;;;;12.21;82.61;96749.13;3565617;39;20454;-72
2021/07/02 05:22:29;;;;;;;9.97;6.30;;;;;;;12.36;82.07;96741.91;3563841;40;20702;-73
2021/07/02 05:24:58;;;;;;;10.50;5.90;;;;;;;12.44;82.17;96744.78;3562982;39;20493;-72
2021/07/02 05:27:26;;;;;;;17.77;6.23;;;;;;;12.52;81.79;96741.59;3564036;40;20454;-72
2021/07/02 05:29:54;;;;;;;11.60;6.20;;;;;;;12.67;81.30;96750.13;3564220;40;20699;-74
2021/07/02 05:32:22;;;;;;;9.33;5.90;;;;;;;12.64;81.36;96750.34;3564042;40;20469;-71
2021/07/02 05:35:08;;;;;;;8.80;5.37;;;;;;;12.77;81.24;96748.47;3562661;39;20909;-75
2021/07/02 05:37:41;;;;;;;9.20;6.07;;;;;;;12.76;81.08;96754.72;3562389;40;20690;-73
2021/07/02 05:40:11;;;;;;;12.33;5.93;;;;;;;12.72;81.84;96755.03;3558446;40;20984;-72
2021/07/02 05:42:40;;;;;;;9.33;6.00;;;;;;;12.80;81.37;96757.91;3562158;40;20940;-71
2021/07/02 05:45:09;;;;;;;16.63;6.47;;;;;;;13.04;80.29;96753.44;3563728;39;20591;-73
2021/07/02 05:47:38;;;;;;;13.20;6.93;;;;;;;13.37;79.45;96753.66;3565667;40;20444;-73
2021/07/02 05:50:08;;;;;;;12.47;6.20;;;;;;;13.70;77.90;96755.44;3559671;40;20477;-75
2021/07/02 05:52:36;;;;;;;10.17;5.90;;;;;;;13.69;76.97;96753.75;3564030;40;20921;-73
2021/07/02 05:55:04;;;;;;;35.27;18.83;;;;;;;13.70;76.76;96744.03;3560673;39;20465;-72
2021/07/02 05:57:34;;;;;;;11.97;7.87;;;;;;;13.72;76.99;96750.03;3563397;40;20789;-73
2021/07/02 06:00:05;;;;;;;11.70;6.90;;;;;;;13.78;77.95;96753.03;3562678;40;20679;-71
2021/07/02 06:02:33;;;;;;;12.33;6.60;;;;;;;13.83;77.58;96753.47;3561810;40;20830;-71
2021/07/02 06:05:01;;;;;;;13.07;7.23;;;;;;;14.18;77.03;96746.34;3562235;39;20497;-73
2021/07/02 06:07:29;;;;;;;13.60;6.70;;;;;;;14.19;76.18;96751.50;3559972;40;20706;-73
2021/07/02 06:09:57;;;;;;;9.60;6.50;;;;;;;14.31;76.15;96754.94;3562377;39;20850;-71
2021/07/02 06:12:28;;;;;;;11.97;7.50;;;;;;;14.53;74.87;96755.81;3564020;40;20822;-72
2021/07/02 06:14:58;;;;;;;27.70;11.37;;;;;;;14.60;74.71;96747.31;3565216;39;20828;-71
2021/07/02 06:17:25;;;;;;;13.47;8.20;;;;;;;14.79;74.66;96751.06;3566099;40;20838;-71
2021/07/02 06:19:53;;;;;;;15.47;7.83;;;;;;;14.81;74.87;96757.84;3565730;40;20477;-71
2021/07/02 06:22:21;;;;;;;13.00;7.10;;;;;;;15.12;73.98;96755.28;3565129;40;20441;-72
2021/07/02 06:24:49;;;;;;;14.47;7.10;;;;;;;15.29;73.06;96760.91;3563813;39;20850;-72
2021/07/02 06:27:17;;;;;;;16.17;6.97;;;;;;;15.48;72.27;96761.03;3560858;40;20571;-71
2021/07/02 06:29:45;;;;;;;22.00;6.93;;;;;;;15.60;71.42;96769.69;3560701;39;20459;-74
2021/07/02 06:32:14;;;;;;;11.43;6.07;;;;;;;15.83;70.50;96767.72;3564329;40;20776;-72
2021/07/02 06:34:42;;;;;;;9.33;5.37;;;;;;;15.82;70.47;96768.72;3564669;39;20455;-71
2021/07/02 06:37:10;;;;;;;7.53;4.83;;;;;;;15.90;69.03;96768.88;3562751;40;20970;-72
2021/07/02 06:39:38;;;;;;;9.77;4.77;;;;;;;16.20;67.77;96761.84;3564385;40;20458;-72
2021/07/02 06:42:06;;;;;;;19.33;11.37;;;;;;;16.42;66.10;96766.03;3571080;40;20857;-71
2021/07/02 06:44:35;;;;;;;22.07;11.80;;;;;;;16.11;64.74;96781.13;3567087;39;20447;-70
2021/07/02 06:47:03;;;;;;;8.03;4.57;;;;;;;15.53;66.35;96779.13;3566627;40;20454;-70
2021/07/02 06:49:33;;;;;;;8.13;4.80;;;;;;;15.78;66.07;96781.34;3562017;40;20913;-71
2021/07/02 06:52:01;;;;;;;9.10;4.87;;;;;;;15.68;65.65;96784.88;3565040;40;20919;-70
2021/07/02 06:54:28;;;;;;;6.70;4.93;;;;;;;15.72;66.75;96786.25;3561417;39;20932;-72
2021/07/02 06:57:02;;;;;;;11.77;4.60;;;;;;;15.85;66.18;96791.38;3559067;40;20823;-72
2021/07/02 06:59:32;;;;;;;9.07;5.10;;;;;;;16.05;64.68;96782.50;3561340;39;20458;-71
2021/07/02 07:02:01;;;;;;;12.13;5.33;;;;;;;16.19;64.37;96783.94;3564298;40;20963;-70
2021/07/02 07:04:34;;;;;;;6.40;4.23;;;;;;;16.37;64.44;96784.97;3561174;39;20920;-72
2021/07/02 07:07:04;;;;;;;7.27;4.00;;;;;;;16.33;64.61;96791.50;3559802;40;20689;-74
2021/07/02 07:09:33;;;;;;;11.50;5.00;;;;;;;16.48;62.61;96786.63;3564428;40;20834;-72
2021/07/02 07:12:02;;;;;;;11.50;5.33;;;;;;;16.40;63.68;96779.38;3561952;40;20854;-71
2021/07/02 07:14:30;;;;;;;11.73;4.57;;;;;;;16.36;64.35;96782.44;3567350;40;20454;-72
2021/07/02 07:16:59;;;;;;;8.40;5.07;;;;;;;16.69;62.92;96778.56;3563281;40;20932;-74
2021/07/02 07:19:28;;;;;;;8.13;4.60;;;;;;;17.44;59.47;96784.06;3563125;39;20482;-71
2021/07/02 07:21:56;;;;;;;7.50;4.90;;;;;;;17.71;60.54;96790.41;3565077;40;20473;-71
2021/07/02 07:24:26;;;;;;;43.30;26.93;;;;;;;17.96;60.32;96795.06;3563786;39;20488;-73
2021/07/02 07:26:55;;;;;;;10.50;6.30;;;;;;;18.28;58.83;96769.91;3563587;40;20921;-70
2021/07/02 07:29:23;;;;;;;7.27;6.00;;;;;;;18.47;58.52;96784.88;3563829;39;20454;-71
2021/07/02 07:31:51;;;;;;;7.70;5.07;;;;;;;18.79;56.50;96788.81;3564225;40;20739;-72
2021/07/02 07:34:26;;;;;;;6.93;4.80;;;;;;;19.10;55.83;96788.44;3562274;39;20454;-73
2021/07/02 07:36:55;;;;;;;8.00;4.60;;;;;;;19.19;54.23;96784.00;3561035;40;20702;-71
2021/07/02 07:39:24;;;;;;;7.37;4.70;;;;;;;19.54;53.84;96780.41;3561143;40;20517;-71
2021/07/02 07:41:53;;;;;;;7.97;4.50;;;;;;;18.79;53.46;96786.16;3563244;40;20489;-71
2021/07/02 07:44:21;;;;;;;11.23;4.83;;;;;;;17.91;56.36;96783.22;3563854;39;20779;-72
2021/07/02 07:46:49;;;;;;;11.40;4.70;;;;;;;18.50;53.75;96781.06;3562848;40;21068;-71
2021/07/02 07:49:17;;;;;;;6.07;4.60;;;;;;;18.08;53.63;96787.75;3561471;40;20446;-71
2021/07/02 07:51:48;;;;;;;9.80;5.70;;;;;;;18.05;54.07;96785.38;3564061;40;20513;-71
2021/07/02 07:54:16;;;;;;;9.63;4.70;;;;;;;17.52;56.05;96786.84;3567230;39;20461;-74
2021/07/02 07:56:50;;;;;;;6.67;4.47;;;;;;;18.11;56.41;96794.56;3563056;40;20543;-72
2021/07/02 07:59:20;;;;;;;7.00;4.30;;;;;;;18.57;55.33;96795.41;3561386;40;20454;-73
2021/07/02 08:01:49;;;;;;;7.90;5.40;;;;;;;18.52;54.92;96784.41;3567861;40;20503;-73
2021/07/02 08:04:17;;;;;;;12.57;5.63;;;;;;;18.68;54.15;96792.53;3562716;39;20446;-70
2021/07/02 08:06:47;;;;;;;7.00;4.60;;;;;;;18.57;53.77;96800.69;3561209;40;20494;-71
2021/07/02 08:09:15;;;;;;;14.20;4.83;;;;;;;17.92;55.15;96798.16;3561700;39;20472;-71
2021/07/02 08:11:43;;;;;;;7.30;4.33;;;;;;;18.03;55.45;96803.25;3562002;40;20467;-71
2021/07/02 08:14:12;;;;;;;10.87;4.97;;;;;;;17.80;54.42;96800.13;3562168;40;21171;-72
2021/07/02 08:16:42;;;;;;;9.63;5.03;;;;;;;17.82;55.04;96805.25;3565505;40;20566;-74
2021/07/02 08:19:10;;;;;;;10.67;5.83;;;;;;;17.68;55.00;96806.56;3561692;40;20724;-72
2021/07/02 08:21:38;;;;;;;10.43;5.17;;;;;;;17.52;55.88;96809.81;3565290;40;20920;-70
2021/07/02 08:24:06;;;;;;;13.23;4.77;;;;;;;17.49;56.33;96807.47;3564289;39;20454;-71
2021/07/02 08:26:34;;;;;;;10.20;5.70;;;;;;;18.24;56.83;96812.78;3562115;40;20473;-73
2021/07/02 08:31:48;;;;;;;6.53;4.60;;;;;;;19.06;52.73;96803.81;3564377;40;21123;-73
2021/07/02 08:34:17;;;;;;;7.87;4.93;;;;;;;19.33;52.67;96812.66;3564638;39;20500;-71
2021/07/02 08:36:46;;;;;;;8.50;5.40;;;;;;;20.22;52.55;96811.50;3561692;40;20758;-72
2021/07/02 08:39:14;;;;;;;10.40;6.60;;;;;;;20.21;52.88;96812.50;3560476;39;20474;-70
2021/07/02 08:41:42;;;;;;;16.23;10.27;;;;;;;20.08;51.79;96812.13;3561917;40;20864;-71
2021/07/02 08:44:10;;;;;;;7.00;4.70;;;;;;;20.33;50.48;96813.88;3560740;40;20512;-70
2021/07/02 08:46:39;;;;;;;9.20;5.33;;;;;;;20.50;51.13;96811.25;3562780;40;20450;-71
2021/07/02 08:49:32;;;;;;;9.70;5.83;;;;;;;20.62;50.68;96815.31;3581206;39;20464;-70
2021/07/02 08:52:03;;;;;;;7.37;4.60;;;;;;;20.95;49.46;96815.34;3567938;40;20473;-70
2021/07/02 08:54:31;;;;;;;9.03;4.87;;;;;;;20.10;51.29;96791.53;3568497;39;20815;-71
2021/07/02 08:57:12;;;;;;;7.27;4.67;;;;;;;19.25;52.47;96801.97;3573924;40;20433;-71
2021/07/02 08:59:43;;;;;;;5.77;4.10;;;;;;;19.82;48.87;96805.03;3568925;40;20567;-70
2021/07/02 09:02:28;;;;;;;8.30;5.20;;;;;;;20.02;49.99;96804.78;3567423;40;20482;-71
2021/07/02 09:04:58;;;;;;;18.27;5.97;;;;;;;20.48;49.82;96815.91;3573366;39;20530;-71
2021/07/02 09:07:26;;;;;;;5.67;4.60;;;;;;;20.89;49.37;96805.38;3567114;40;20477;-72
2021/07/02 09:09:56;;;;;;;7.73;4.33;;;;;;;20.24;50.40;96809.50;3564202;40;20771;-73
2021/07/02 09:12:26;;;;;;;5.90;4.07;;;;;;;20.28;48.30;96810.03;3676299;22;20786;-72
2021/07/02 09:15:07;;;;;;;7.53;4.90;;;;;;;20.10;48.53;96824.25;3576528;39;20590;-72
2021/07/02 09:17:59;;;;;;;8.40;4.43;;;;;;;20.11;45.95;96812.63;3584433;40;20860;-72
2021/07/02 09:20:40;;;;;;;6.40;4.67;;;;;;;21.11;46.59;96819.84;3582174;39;20509;-72
2021/07/02 09:23:10;;;;;;;9.43;4.57;;;;;;;21.00;46.31;96815.69;3595175;39;20491;-72
2021/07/02 09:25:40;;;;;;;5.67;3.60;;;;;;;19.82;42.58;96818.31;3571711;40;20542;-72
2021/07/02 09:28:10;;;;;;;6.67;4.40;;;;;;;20.46;43.87;96812.56;3578713;40;20710;-71
2021/07/02 09:30:39;;;;;;;6.90;4.43;;;;;;;20.42;47.40;96825.34;3569913;40;20480;-72
2021/07/02 09:33:10;;;;;;;10.90;4.97;;;;;;;20.70;46.31;96828.63;3570771;40;20825;-71
2021/07/02 09:35:46;;;;;;;9.50;4.67;;;;;;;21.68;44.87;96819.84;3566876;40;20500;-72
2021/07/02 09:38:16;;;;;;;18.60;6.23;;;;;;;21.05;45.91;96826.69;3568085;40;20785;-71
2021/07/02 09:40:45;;;;;;;7.50;5.70;;;;;;;21.36;44.36;96826.00;3568607;40;20905;-72
2021/07/02 09:43:15;;;;;;;9.47;4.67;;;;;;;21.62;45.04;96825.00;3573984;40;20802;-73
2021/07/02 09:45:48;;;;;;;5.60;4.07;;;;;;;21.67;44.62;96828.00;3572065;40;20577;-72
2021/07/02 09:48:18;;;;;;;7.43;4.03;;;;;;;22.14;41.53;96821.03;3573223;39;20469;-73
2021/07/02 09:50:50;;;;;;;8.43;3.90;;;;;;;22.06;42.42;96821.91;3568048;40;20830;-71
2021/07/02 09:53:19;;;;;;;17.27;4.63;;;;;;;21.63;43.10;96832.81;3570572;40;20568;-72
2021/07/02 09:55:50;;;;;;;7.03;5.23;;;;;;;21.59;43.05;96828.84;3568612;40;20857;-73
2021/07/02 09:58:20;;;;;;;5.60;4.07;;;;;;;21.56;40.04;96818.53;3572265;40;20477;-72
2021/07/02 10:00:50;;;;;;;11.90;4.37;;;;;;;21.68;42.54;96829.69;3575256;39;20487;-72
2021/07/02 10:03:19;;;;;;;8.33;5.20;;;;;;;22.22;43.19;96829.81;3569294;40;21114;-74
2021/07/02 10:05:51;;;;;;;7.80;4.50;;;;;;;22.97;39.88;96825.75;3566662;40;20567;-73
2021/07/02 10:08:20;;;;;;;6.43;4.57;;;;;;;22.06;42.57;96825.38;3570765;40;20874;-71
2021/07/02 10:10:50;;;;;;;6.63;4.83;;;;;;;21.66;44.63;96834.31;3576410;39;20927;-72
2021/07/02 10:13:21;;;;;;;9.53;5.77;;;;;;;21.89;43.61;96835.28;3568974;40;20780;-74
2021/07/02 10:15:52;;;;;;;11.83;5.00;;;;;;;22.39;41.97;96832.47;3570074;40;20558;-71
2021/07/02 10:18:22;;;;;;;5.70;4.13;;;;;;;21.21;40.80;96827.66;3566437;40;20533;-73
2021/07/02 10:20:55;;;;;;;6.93;4.50;;;;;;;21.56;41.81;96833.66;3580653;39;21169;-73
2021/07/02 10:23:28;;;;;;;9.50;5.00;;;;;;;22.07;41.68;96840.41;3569559;40;20435;-72
2021/07/02 10:25:57;;;;;;;8.40;4.10;;;;;;;22.33;42.53;96844.66;3567474;40;20467;-72
2021/07/02 10:28:28;;;;;;;9.47;5.40;;;;;;;22.89;39.78;96825.81;3570109;40;20446;-71
2021/07/02 10:30:56;;;;;;;6.17;4.37;;;;;;;21.96;38.64;96839.94;3571353;39;20508;-74
2021/07/02 10:33:27;;;;;;;5.63;3.73;;;;;;;23.02;40.30;96839.44;3568408;40;20486;-73
2021/07/02 10:35:59;;;;;;;9.90;4.70;;;;;;;22.78;39.62;96832.41;3570690;40;20686;-73
2021/07/02 10:38:34;;;;;;;5.17;4.17;;;;;;;23.25;40.08;96830.63;3576533;39;20679;-73
2021/07/02 10:41:09;;;;;;;5.97;4.70;;;;;;;23.39;39.53;96835.16;3572148;40;20813;-72
2021/07/02 10:43:37;;;;;;;7.03;4.70;;;;;;;23.20;40.16;96838.31;3580595;39;20861;-73
2021/07/02 10:46:14;;;;;;;7.70;4.60;;;;;;;23.18;37.79;96816.31;3569421;40;20791;-73
2021/07/02 10:49:09;;;;;;;7.10;4.30;;;;;;;23.42;36.57;96832.13;3565924;40;20745;-72
2021/07/02 10:51:50;;;;;;;8.20;3.67;;;;;;;23.63;35.54;96828.75;3549820;40;20465;-74
2021/07/02 10:54:35;;;;;;;5.77;3.37;;;;;;;23.45;36.16;96833.59;3570948;39;20701;-73
2021/07/02 10:57:15;;;;;;;7.07;3.93;;;;;;;23.94;36.86;96835.81;3569894;40;20450;-71
2021/07/02 11:00:16;;;;;;;14.57;3.93;;;;;;;22.73;39.46;96839.28;3568823;40;20566;-73
2021/07/02 11:02:44;;;;;;;7.17;4.60;;;;;;;21.40;42.29;96837.16;3569840;40;20441;-74
2021/07/02 11:05:35;;;;;;;14.17;4.30;;;;;;;22.90;41.68;96846.19;3572632;39;20706;-71
2021/07/02 11:08:04;;;;;;;6.40;4.53;;;;;;;22.44;41.88;96840.75;3569888;40;20863;-73
2021/07/02 11:10:58;;;;;;;6.50;4.80;;;;;;;22.22;41.11;96843.16;3569030;40;20446;-73
2021/07/02 11:13:26;;;;;;;7.37;4.03;;;;;;;22.62;40.86;96844.03;3570261;40;20772;-72
2021/07/02 11:16:08;;;;;;;6.90;4.13;;;;;;;22.80;41.00;96850.94;3567429;40;20706;-72
2021/07/02 11:18:42;;;;;;;7.07;3.83;;;;;;;23.43;39.23;96844.47;3572541;40;20845;-73
2021/07/02 11:21:16;;;;;;;7.17;5.17;;;;;;;23.57;37.14;96832.16;3580924;39;20469;-71
2021/07/02 11:23:47;;;;;;;6.03;4.00;;;;;;;23.95;36.66;96834.78;3587846;40;20805;-72
2021/07/02 11:26:45;;;;;;;5.60;4.00;;;;;;;23.88;37.32;96829.38;3568756;40;20708;-73
2021/07/02 11:29:15;;;;;;;10.97;4.20;;;;;;;23.16;39.88;96840.50;3568917;39;20477;-72
2021/07/02 11:31:44;;;;;;;12.10;5.70;;;;;;;23.80;39.27;96842.00;3573516;40;20438;-72
2021/07/02 11:34:17;;;;;;;7.53;4.20;;;;;;;23.93;38.13;96841.34;3569427;40;20539;-73
2021/07/02 11:37:14;;;;;;;9.47;4.03;;;;;;;24.74;36.80;96833.38;3569057;40;20453;-72
2021/07/02 11:39:53;;;;;;;5.77;4.13;;;;;;;23.74;38.65;96837.31;3573095;40;20460;-73
2021/07/02 11:42:22;;;;;;;6.80;5.00;;;;;;;23.12;38.32;96841.06;3585859;39;20838;-74
2021/07/02 11:44:52;;;;;;;9.97;4.83;;;;;;;23.80;37.52;96836.66;3576528;39;20835;-72
2021/07/02 11:47:21;;;;;;;7.90;4.60;;;;;;;24.48;36.66;96829.31;3580605;40;20486;-73